F/V Cote D'ambre — FPEY — position and weather

sailwx.info

Track history (hours):
 
Tides and Currents Weather Stations Pressure Air Temp Water Temp Dewpoint Dewpoint Depression Visibility Wind Speed Wind Dir Waves Ship Positions

F/V Cote D'ambre

Last reported at 2016-Jun-22 08:25 UTC. Time now 2016-Jun-29 07:28 UTC.
Position N 47°44' W 003°22'.

Length 16 m; draft 4 m.

Type: Fishing. MMSI: 227128800.

Date/timePositionNaut miles runAvg speedWind from/ knotsBaromVisibWave heightAir tempDewpointWater temp
2016-Jun-22 08:25N 47°44' W 003°22'0 0.0
2016-Jun-22 01:32N 47°44' W 003°22'0 0.0
2016-Jun-22 00:33N 47°44' W 003°22'0 0.0
2016-Jun-21 23:33N 47°44' W 003°22'5 5.2
2016-Jun-21 22:33N 47°39' W 003°22'8 8.0
2016-Jun-21 21:33N 47°31' W 003°21'8 7.8
2016-Jun-21 20:33N 47°23' W 003°20'8 7.6
2016-Jun-21 19:33N 47°15' W 003°20'8 7.6
2016-Jun-21 18:33N 47°08' W 003°19'6 5.2
2016-Jun-21 17:27N 47°02' W 003°19'14 1.1
2016-Jun-21 04:33N 47°16' W 003°23'8 8.4
2016-Jun-21 03:33N 47°24' W 003°23'8 7.9
2016-Jun-21 02:33N 47°32' W 003°23'8 7.9
2016-Jun-21 01:34N 47°40' W 003°22'3 3.5
2016-Jun-21 00:33N 47°44' W 003°22'0 0.2
2016-Jun-20 23:33N 47°44' W 003°22'7 7.6
2016-Jun-20 22:33N 47°36' W 003°22'9 8.7
2016-Jun-20 21:33N 47°28' W 003°22'8 8.5
2016-Jun-20 20:33N 47°19' W 003°21'8 8.3
2016-Jun-20 19:33N 47°11' W 003°21'18 1.9
2016-Jun-20 10:05N 46°53' W 003°22'2 3.4
2016-Jun-20 09:33N 46°54' W 003°24'7 3.1
2016-Jun-20 07:12N 47°01' W 003°24'2 2.6
2016-Jun-20 06:34N 47°03' W 003°24'3 3.3
2016-Jun-20 05:30N 47°06' W 003°23'3 3.4
2016-Jun-20 04:33N 47°09' W 003°24'4 4.3
2016-Jun-20 03:33N 47°14' W 003°25'8 8.1
2016-Jun-20 02:34N 47°22' W 003°24'8 8.0
2016-Jun-20 01:34N 47°30' W 003°23'8 8.0
2016-Jun-20 00:33N 47°38' W 003°23'6 6.1
2016-Jun-19 23:33N 47°44' W 003°22'0 0.0
2016-Jun-19 22:33N 47°44' W 003°22'4 4.1
2016-Jun-19 21:33N 47°40' W 003°22'9 8.9
2016-Jun-19 20:33N 47°31' W 003°21'9 8.6
2016-Jun-19 19:33N 47°22' W 003°20'9 8.5
2016-Jun-19 18:33N 47°14' W 003°18'9 8.6
2016-Jun-19 17:33N 47°05' W 003°18'14 1.1
2016-Jun-19 04:22N 46°51' W 003°18'15 0.7
2016-Jun-18 07:21N 47°06' W 003°24'6 7.3
2016-Jun-18 06:33N 47°12' W 003°23'8 8.2
2016-Jun-18 05:33N 47°20' W 003°23'9 8.5
2016-Jun-18 04:33N 47°28' W 003°22'9 8.6
2016-Jun-18 03:33N 47°37' W 003°22'7 6.7
2016-Jun-18 02:31N 47°44' W 003°22'0 0.2
2016-Jun-18 01:32N 47°44' W 003°22'4 3.7
2016-Jun-18 00:33N 47°40' W 003°22'8 8.0
2016-Jun-17 23:33N 47°32' W 003°22'8 7.8
2016-Jun-17 22:33N 47°24' W 003°22'8 7.9
2016-Jun-17 21:33N 47°16' W 003°22'7 7.4
2016-Jun-17 20:33N 47°09' W 003°22'3 3.5
2016-Jun-17 19:33N 47°06' W 003°24'4 0.1
2016-Jun-16 14:30N 47°08' W 003°20'15 1.6
2016-Jun-16 05:33N 47°21' W 003°31'2 2.1
2016-Jun-16 04:33N 47°23' W 003°29'3 3.3
2016-Jun-16 03:33N 47°26' W 003°28'8 7.8
2016-Jun-16 02:33N 47°33' W 003°24'8 8.1
2016-Jun-16 01:33N 47°41' W 003°22'3 2.6
2016-Jun-16 00:34N 47°44' W 003°22'6 6.2
2016-Jun-15 23:34N 47°40' W 003°29'5 5.0
2016-Jun-15 22:31N 47°36' W 003°34'2 1.7
2016-Jun-15 21:33N 47°34' W 003°35'7 1.3
2016-Jun-15 16:33N 47°39' W 003°42'3 2.8
2016-Jun-15 15:33N 47°36' W 003°42'2 2.3
2016-Jun-15 14:34N 47°34' W 003°41'1 1.5
2016-Jun-15 13:33N 47°36' W 003°41'4 3.9
2016-Jun-15 12:34N 47°38' W 003°46'3 2.9
2016-Jun-15 11:33N 47°40' W 003°46'3 3.3
2016-Jun-15 10:33N 47°43' W 003°49'0 0.3
2016-Jun-15 09:30N 47°43' W 003°49'12 2.4
2016-Jun-15 04:33N 47°34' W 003°38'6 5.7
2016-Jun-15 03:33N 47°39' W 003°32'7 6.8
2016-Jun-15 02:33N 47°42' W 003°23'2 0.2
2016-Jun-14 15:11N 47°44' W 003°22'0 0.2
2016-Jun-14 14:33N 47°44' W 003°22'0 0.1
2016-Jun-14 13:33N 47°44' W 003°22'0 0.0
2016-Jun-14 12:33N 47°44' W 003°22'0 0.0
2016-Jun-14 11:33N 47°44' W 003°22'0 0.0
2016-Jun-14 10:33N 47°44' W 003°22'0 0.0
2016-Jun-14 09:33N 47°44' W 003°22'0 0.0
2016-Jun-14 08:33N 47°44' W 003°22'0 0.0
2016-Jun-13 14:14N 47°44' W 003°22'0 0.0
2016-Jun-13 13:32N 47°44' W 003°22'  
Track history (hours):
 
Tides and Currents Weather Stations Pressure Air Temp Water Temp Dewpoint Dewpoint Depression Visibility Wind Speed Wind Dir Waves Ship Positions

F/V Cote D'ambre

Last reported at 2016-Jun-22 08:25 UTC. Time now 2016-Jun-29 07:28 UTC.
Position N 47°44' W 003°22'.

Length 16 m; draft 4 m.

Type: Fishing. MMSI: 227128800.

Date/timePositionNaut miles runAvg speedWind from/ knotsBaromVisibWave heightAir tempDewpointWater temp
2016-Jun-22 08:25N 47°44' W 003°22'0 0.0
2016-Jun-22 01:32N 47°44' W 003°22'0 0.0
2016-Jun-22 00:33N 47°44' W 003°22'0 0.0
2016-Jun-21 23:33N 47°44' W 003°22'5 5.2
2016-Jun-21 22:33N 47°39' W 003°22'8 8.0
2016-Jun-21 21:33N 47°31' W 003°21'8 7.8
2016-Jun-21 20:33N 47°23' W 003°20'8 7.6
2016-Jun-21 19:33N 47°15' W 003°20'8 7.6
2016-Jun-21 18:33N 47°08' W 003°19'6 5.2
2016-Jun-21 17:27N 47°02' W 003°19'14 1.1
2016-Jun-21 04:33N 47°16' W 003°23'8 8.4
2016-Jun-21 03:33N 47°24' W 003°23'8 7.9
2016-Jun-21 02:33N 47°32' W 003°23'8 7.9
2016-Jun-21 01:34N 47°40' W 003°22'3 3.5
2016-Jun-21 00:33N 47°44' W 003°22'0 0.2
2016-Jun-20 23:33N 47°44' W 003°22'7 7.6
2016-Jun-20 22:33N 47°36' W 003°22'9 8.7
2016-Jun-20 21:33N 47°28' W 003°22'8 8.5
2016-Jun-20 20:33N 47°19' W 003°21'8 8.3
2016-Jun-20 19:33N 47°11' W 003°21'18 1.9
2016-Jun-20 10:05N 46°53' W 003°22'2 3.4
2016-Jun-20 09:33N 46°54' W 003°24'7 3.1
2016-Jun-20 07:12N 47°01' W 003°24'2 2.6
2016-Jun-20 06:34N 47°03' W 003°24'3 3.3
2016-Jun-20 05:30N 47°06' W 003°23'3 3.4
2016-Jun-20 04:33N 47°09' W 003°24'4 4.3
2016-Jun-20 03:33N 47°14' W 003°25'8 8.1
2016-Jun-20 02:34N 47°22' W 003°24'8 8.0
2016-Jun-20 01:34N 47°30' W 003°23'8 8.0
2016-Jun-20 00:33N 47°38' W 003°23'6 6.1
2016-Jun-19 23:33N 47°44' W 003°22'0 0.0
2016-Jun-19 22:33N 47°44' W 003°22'4 4.1
2016-Jun-19 21:33N 47°40' W 003°22'9 8.9
2016-Jun-19 20:33N 47°31' W 003°21'9 8.6
2016-Jun-19 19:33N 47°22' W 003°20'9 8.5
2016-Jun-19 18:33N 47°14' W 003°18'9 8.6
2016-Jun-19 17:33N 47°05' W 003°18'14 1.1
2016-Jun-19 04:22N 46°51' W 003°18'15 0.7
2016-Jun-18 07:21N 47°06' W 003°24'6 7.3
2016-Jun-18 06:33N 47°12' W 003°23'8 8.2
2016-Jun-18 05:33N 47°20' W 003°23'9 8.5
2016-Jun-18 04:33N 47°28' W 003°22'9 8.6
2016-Jun-18 03:33N 47°37' W 003°22'7 6.7
2016-Jun-18 02:31N 47°44' W 003°22'0 0.2
2016-Jun-18 01:32N 47°44' W 003°22'4 3.7
2016-Jun-18 00:33N 47°40' W 003°22'8 8.0
2016-Jun-17 23:33N 47°32' W 003°22'8 7.8
2016-Jun-17 22:33N 47°24' W 003°22'8 7.9
2016-Jun-17 21:33N 47°16' W 003°22'7 7.4
2016-Jun-17 20:33N 47°09' W 003°22'3 3.5
2016-Jun-17 19:33N 47°06' W 003°24'4 0.1
2016-Jun-16 14:30N 47°08' W 003°20'15 1.6
2016-Jun-16 05:33N 47°21' W 003°31'2 2.1
2016-Jun-16 04:33N 47°23' W 003°29'3 3.3
2016-Jun-16 03:33N 47°26' W 003°28'8 7.8
2016-Jun-16 02:33N 47°33' W 003°24'8 8.1
2016-Jun-16 01:33N 47°41' W 003°22'3 2.6
2016-Jun-16 00:34N 47°44' W 003°22'6 6.2
2016-Jun-15 23:34N 47°40' W 003°29'5 5.0
2016-Jun-15 22:31N 47°36' W 003°34'2 1.7
2016-Jun-15 21:33N 47°34' W 003°35'7 1.3
2016-Jun-15 16:33N 47°39' W 003°42'3 2.8
2016-Jun-15 15:33N 47°36' W 003°42'2 2.3
2016-Jun-15 14:34N 47°34' W 003°41'1 1.5
2016-Jun-15 13:33N 47°36' W 003°41'4 3.9
2016-Jun-15 12:34N 47°38' W 003°46'3 2.9
2016-Jun-15 11:33N 47°40' W 003°46'3 3.3
2016-Jun-15 10:33N 47°43' W 003°49'0 0.3
2016-Jun-15 09:30N 47°43' W 003°49'12 2.4
2016-Jun-15 04:33N 47°34' W 003°38'6 5.7
2016-Jun-15 03:33N 47°39' W 003°32'7 6.8
2016-Jun-15 02:33N 47°42' W 003°23'2 0.2
2016-Jun-14 15:11N 47°44' W 003°22'0 0.2
2016-Jun-14 14:33N 47°44' W 003°22'0 0.1
2016-Jun-14 13:33N 47°44' W 003°22'0 0.0
2016-Jun-14 12:33N 47°44' W 003°22'0 0.0
2016-Jun-14 11:33N 47°44' W 003°22'0 0.0
2016-Jun-14 10:33N 47°44' W 003°22'0 0.0
2016-Jun-14 09:33N 47°44' W 003°22'0 0.0
2016-Jun-14 08:33N 47°44' W 003°22'0 0.0
2016-Jun-13 14:14N 47°44' W 003°22'0 0.0
2016-Jun-13 13:32N 47°44' W 003°22'  

Dump ship's entire track history